Craryville, New York
Current Conditions -  °F | °C
As of 3:54 PM on Monday 24 Nov 2014 (Local Time) from KPSF Reporting Station
Overcast Overcast  
Wind Chill: 62°   Ceiling: 4500
Heat Index: 62°   Visibility: 10mi
Dew Point: 55°   Wind: 12mph
Humidity: 78%   Direction: 170°S
Pressure: 29.52"   Gusts: 21mph
Location:  42.17°N, 73.58°W
Report Text: KPSF 242054Z AUTO 17010G18KT 10SM FEW025 SCT035 OVC045 17/13 A2952 RMK AO2 SLP987 T01670128 55006
Loading
Personal Weather Stations






























Interactive Weather Map New forecast layout! Learn more

10-Day Weather Forecast

Advertisements
Track Severe Weather on mobile